Time;durP1;ratioP1;P1;durP2;ratioP2;P2;SDS_P1;SDS_P2;PMS_P1;PMS_P2;Temp;Humidity;BMP_temperature;BMP_pressure;BME280_temperature;BME280_humidity;BME280_pressure;Samples;Min_cycle;Max_cycle;Signal;HPM_P1;HPM_P2
2022/11/04 00:00:48;;;;;;;24.17;17.40;;;11.20;99.90;;;;;;6311427;22;20133;-80
2022/11/04 00:03:13;;;;;;;26.58;17.58;;;11.20;99.90;;;;;;6311500;22;20007;-79
2022/11/04 00:05:39;;;;;;;22.00;14.55;;;11.30;99.90;;;;;;6313598;22;20019;-80
2022/11/04 00:08:23;;;;;;;16.80;10.38;;;11.20;99.90;;;;;;6341114;22;20397;-80
2022/11/04 00:13:41;;;;;;;13.25;8.55;;;11.10;99.90;;;;;;6313313;22;20021;-80
2022/11/04 00:18:52;;;;;;;11.43;6.38;;;11.10;99.90;;;;;;6313291;22;20084;-79
2022/11/04 00:29:32;;;;;;;6.57;2.70;;;11.00;99.90;;;;;;6341073;22;20064;-79
2022/11/04 00:34:42;;;;;;;4.95;1.13;;;10.90;99.90;;;;;;6313211;22;20335;-80
2022/11/04 00:37:07;;;;;;;1.33;0.30;;;10.90;99.90;;;;;;6340931;22;20499;-80
2022/11/04 00:39:33;;;;;;;3.70;0.20;;;10.80;99.90;;;;;;6313145;22;20017;-80
2022/11/04 00:41:59;;;;;;;2.45;0.20;;;10.70;99.90;;;;;;6340964;22;20431;-79
2022/11/04 00:44:24;;;;;;;2.70;0.20;;;10.70;99.90;;;;;;6313158;22;20049;-79
2022/11/04 00:46:50;;;;;;;2.53;0.10;;;10.70;99.90;;;;;;6313151;22;20018;-79
2022/11/04 00:49:15;;;;;;;3.63;0.30;;;10.70;99.90;;;;;;6340800;22;20033;-79
2022/11/04 00:51:41;;;;;;;2.55;0.20;;;10.70;99.90;;;;;;6340927;22;20478;-79
2022/11/04 00:54:07;;;;;;;2.35;0.10;;;10.70;99.90;;;;;;6313065;22;20094;-79
2022/11/04 00:56:33;;;;;;;2.22;0.40;;;10.70;99.90;;;;;;6312939;22;20338;-79
2022/11/04 00:58:58;;;;;;;3.75;0.47;;;10.70;99.90;;;;;;6312878;22;20476;-80
2022/11/04 01:01:24;;;;;;;3.60;0.40;;;10.60;99.90;;;;;;6340733;22;20085;-79
2022/11/04 01:03:51;;;;;;;6.05;0.50;;;10.70;99.90;;;;;;6340355;22;20015;-79
2022/11/04 01:06:19;;;;;;;8.65;0.85;;;10.70;99.90;;;;;;6313064;22;20025;-80
2022/11/04 01:08:46;;;;;;;5.00;0.30;;;10.70;99.90;;;;;;6312505;22;20019;-80
2022/11/04 01:11:12;;;;;;;7.13;0.60;;;10.70;99.90;;;;;;6312923;22;20015;-81
2022/11/04 01:13:38;;;;;;;8.70;0.80;;;10.70;99.90;;;;;;6340718;22;20011;-80
2022/11/04 01:16:07;;;;;;;4.15;0.55;;;10.70;99.90;;;;;;6312255;22;20154;-80
2022/11/04 01:18:34;;;;;;;7.03;0.60;;;10.60;99.90;;;;;;6312821;22;20019;-80
2022/11/04 01:21:01;;;;;;;9.18;1.30;;;10.60;99.90;;;;;;6340327;22;20451;-80
2022/11/04 01:23:27;;;;;;;9.00;0.88;;;10.70;99.90;;;;;;6340279;22;20019;-81
2022/11/04 01:25:52;;;;;;;9.90;0.98;;;10.70;99.90;;;;;;6312638;22;20024;-80
2022/11/04 01:28:18;;;;;;;14.88;0.95;;;10.80;99.90;;;;;;6312659;22;20051;-80
2022/11/04 01:30:43;;;;;;;9.82;1.10;;;10.80;99.90;;;;;;6340571;22;20007;-80
2022/11/04 01:33:09;;;;;;;4.15;0.75;;;10.80;99.90;;;;;;6312683;22;20064;-80
2022/11/04 01:35:34;;;;;;;5.40;0.93;;;10.80;99.90;;;;;;6312666;22;20019;-80
2022/11/04 01:38:00;;;;;;;7.38;0.60;;;10.70;99.90;;;;;;6340470;22;20006;-80
2022/11/04 01:40:26;;;;;;;8.02;0.60;;;10.80;99.90;;;;;;6312567;22;20018;-80
2022/11/04 01:42:52;;;;;;;8.38;1.10;;;10.70;99.90;;;;;;6312620;22;20014;-80
2022/11/04 01:45:20;;;;;;;7.05;0.80;;;10.70;99.90;;;;;;6312498;22;20023;-80
2022/11/04 01:47:51;;;;;;;4.63;1.10;;;10.70;99.90;;;;;;6340385;22;20015;-80
2022/11/04 01:50:25;;;;;;;8.32;1.05;;;10.70;99.90;;;;;;6340529;22;20086;-79
2022/11/04 01:53:00;;;;;;;7.70;0.73;;;10.70;99.90;;;;;;6312536;22;20034;-80
2022/11/04 01:55:30;;;;;;;3.30;0.40;;;10.70;99.90;;;;;;6340500;22;20050;-80
2022/11/04 01:58:03;;;;;;;5.25;0.93;;;10.70;99.90;;;;;;6312974;22;20022;-80
2022/11/04 02:00:29;;;;;;;6.05;0.40;;;10.70;99.90;;;;;;6312555;22;20018;-80
2022/11/04 02:03:21;;;;;;;11.30;1.45;;;10.70;99.90;;;;;;6312289;22;20022;-81
2022/11/04 02:05:47;;;;;;;12.10;1.38;;;10.80;99.90;;;;;;6339962;22;20343;-80
2022/11/04 02:08:15;;;;;;;10.45;1.25;;;10.80;99.90;;;;;;6311913;22;20446;-80
2022/11/04 02:10:48;;;;;;;7.18;0.70;;;10.80;99.90;;;;;;6312312;22;20088;-80
2022/11/04 02:13:14;;;;;;;8.52;0.90;;;10.80;99.90;;;;;;6312242;22;20072;-80
2022/11/04 02:16:05;;;;;;;7.50;0.47;;;10.80;99.90;;;;;;6340172;22;20556;-81
2022/11/04 02:18:38;;;;;;;9.57;0.70;;;10.80;99.90;;;;;;6290970;22;20389;-79
2022/11/04 02:21:16;;;;;;;9.93;0.82;;;10.80;99.90;;;;;;6339947;22;20026;-80
2022/11/04 02:23:41;;;;;;;6.47;1.17;;;10.80;99.90;;;;;;6312330;22;20451;-80
2022/11/04 02:26:22;;;;;;;10.52;0.70;;;10.80;99.90;;;;;;6312041;22;20025;-80
2022/11/04 02:29:06;;;;;;;6.03;0.65;;;10.80;99.90;;;;;;6311936;22;20018;-79
2022/11/04 02:31:57;;;;;;;10.27;0.85;;;10.80;99.90;;;;;;6312023;22;20094;-79
2022/11/04 02:34:48;;;;;;;6.28;0.98;;;10.80;99.90;;;;;;6312058;22;20442;-80
2022/11/04 02:37:25;;;;;;;9.82;1.17;;;10.80;99.90;;;;;;6340013;22;20067;-80
2022/11/04 02:40:05;;;;;;;10.77;0.68;;;10.90;99.90;;;;;;6340139;22;20017;-79
2022/11/04 02:42:44;;;;;;;9.93;0.90;;;10.80;99.90;;;;;;6311967;22;20064;-79
2022/11/04 02:45:21;;;;;;;6.20;0.73;;;10.80;99.90;;;;;;6312118;22;20015;-80
2022/11/04 02:48:10;;;;;;;6.45;0.70;;;10.80;99.90;;;;;;6311825;22;20015;-79
2022/11/04 02:51:01;;;;;;;3.40;0.50;;;10.90;99.90;;;;;;6339614;22;20347;-79
2022/11/04 02:53:41;;;;;;;6.55;0.80;;;10.80;99.90;;;;;;6311997;22;20015;-79
2022/11/04 02:56:09;;;;;;;6.72;0.30;;;10.70;99.90;;;;;;6339946;22;20039;-80
2022/11/04 02:58:57;;;;;;;4.57;0.70;;;10.70;99.90;;;;;;6311768;22;20081;-80
2022/11/04 03:01:28;;;;;;;8.80;0.60;;;10.70;99.90;;;;;;6311025;22;20031;-80
2022/11/04 03:04:05;;;;;;;8.20;0.57;;;10.60;99.90;;;;;;6340025;22;20015;-80
2022/11/04 03:06:33;;;;;;;3.40;0.40;;;10.60;99.90;;;;;;6339480;22;20343;-80
2022/11/04 03:09:01;;;;;;;12.32;1.70;;;10.50;99.90;;;;;;6311315;22;20502;-79
2022/11/04 03:11:27;;;;;;;8.43;0.45;;;10.50;99.90;;;;;;6339764;22;20015;-80
2022/11/04 03:14:06;;;;;;;7.15;0.60;;;10.40;99.90;;;;;;6311739;22;20027;-80
2022/11/04 03:16:53;;;;;;;3.95;0.43;;;10.50;99.90;;;;;;6339682;22;20018;-80
2022/11/04 03:19:38;;;;;;;8.93;0.82;;;10.50;99.90;;;;;;6311622;22;20007;-79
2022/11/04 03:22:08;;;;;;;7.32;0.65;;;10.60;99.90;;;;;;6339440;22;20014;-79
2022/11/04 03:24:33;;;;;;;8.93;1.00;;;10.70;99.90;;;;;;6339247;22;20469;-79
2022/11/04 03:27:11;;;;;;;5.82;0.70;;;10.70;99.90;;;;;;6311677;22;20018;-79
2022/11/04 03:30:03;;;;;;;6.50;2.08;;;10.80;99.90;;;;;;6339588;22;20018;-79
2022/11/04 03:32:45;;;;;;;6.15;0.63;;;10.90;99.90;;;;;;6311700;22;20014;-79
2022/11/04 03:35:14;;;;;;;8.82;1.55;;;10.90;99.90;;;;;;6339766;22;20018;-80
2022/11/04 03:37:41;;;;;;;4.20;0.57;;;10.90;99.90;;;;;;6311675;22;20328;-79
2022/11/04 03:40:07;;;;;;;3.30;0.73;;;10.90;99.90;;;;;;6314847;22;20011;-79
2022/11/04 03:42:39;;;;;;;6.32;0.50;;;10.80;99.90;;;;;;6342913;22;20018;-79
2022/11/04 03:45:05;;;;;;;7.95;0.52;;;10.70;99.90;;;;;;6343001;22;20072;-79
2022/11/04 03:47:31;;;;;;;3.78;0.50;;;10.60;99.90;;;;;;6342362;22;20373;-79
2022/11/04 03:50:06;;;;;;;6.55;0.65;;;10.60;99.90;;;;;;6314936;22;20019;-79
2022/11/04 03:52:33;;;;;;;3.92;0.60;;;10.50;99.90;;;;;;6315048;22;20442;-79
2022/11/04 03:54:58;;;;;;;5.93;0.47;;;10.50;99.90;;;;;;6314940;22;20014;-79
2022/11/04 03:57:57;;;;;;;7.63;0.88;;;10.60;99.90;;;;;;6342801;22;20017;-79
2022/11/04 04:00:24;;;;;;;4.18;0.73;;;10.50;99.90;;;;;;6298635;22;20030;-80
2022/11/04 04:03:22;;;;;;;6.45;0.95;;;10.60;99.90;;;;;;6314922;22;20014;-80
2022/11/04 04:05:52;;;;;;;6.65;1.00;;;10.60;99.90;;;;;;6293394;22;20038;-79
2022/11/04 04:08:59;;;;;;;6.30;0.55;;;10.60;99.90;;;;;;6314532;22;20015;-79
2022/11/04 04:11:55;;;;;;;6.43;0.93;;;10.60;99.90;;;;;;6314851;22;20320;-79
2022/11/04 04:14:42;;;;;;;7.68;0.52;;;10.50;99.90;;;;;;6314894;22;20010;-80
2022/11/04 04:17:28;;;;;;;8.38;0.57;;;10.50;99.90;;;;;;6314874;22;20046;-80
2022/11/04 04:20:02;;;;;;;6.70;0.60;;;10.40;99.90;;;;;;6314927;22;20015;-79
2022/11/04 04:22:40;;;;;;;5.75;0.60;;;10.40;99.90;;;;;;6314852;22;20022;-79
2022/11/04 04:27:56;;;;;;;6.57;0.60;;;10.40;99.90;;;;;;6314659;22;20019;-79
2022/11/04 04:30:21;;;;;;;3.15;0.40;;;10.30;99.90;;;;;;6314763;22;20351;-79
2022/11/04 04:32:58;;;;;;;6.25;0.68;;;10.30;99.90;;;;;;6314782;22;20462;-79
2022/11/04 04:35:43;;;;;;;9.85;1.08;;;10.30;99.90;;;;;;6314832;22;20051;-79
2022/11/04 04:46:44;;;;;;;8.50;0.90;;;10.30;99.90;;;;;;6314595;22;20454;-79
2022/11/04 04:49:10;;;;;;;6.43;0.68;;;10.30;99.90;;;;;;6342564;22;20014;-79
2022/11/04 04:51:41;;;;;;;4.72;0.63;;;10.30;99.90;;;;;;6313095;22;20060;-79
2022/11/04 04:54:07;;;;;;;6.53;0.60;;;10.30;99.90;;;;;;6313148;22;20014;-79
2022/11/04 04:56:33;;;;;;;6.00;0.70;;;10.30;99.90;;;;;;6313025;22;20018;-79
2022/11/04 04:58:58;;;;;;;5.72;0.50;;;10.20;99.90;;;;;;6340631;22;20015;-79
2022/11/04 05:01:24;;;;;;;4.68;0.80;;;10.20;99.90;;;;;;6313007;22;20018;-79
2022/11/04 05:03:49;;;;;;;5.13;0.63;;;10.20;99.90;;;;;;6313031;22;20085;-79
2022/11/04 05:06:15;;;;;;;4.07;0.47;;;10.20;99.90;;;;;;6312933;22;20368;-79
2022/11/04 05:08:41;;;;;;;4.10;0.60;;;10.20;99.90;;;;;;6312609;22;20019;-80
2022/11/04 05:11:06;;;;;;;6.45;0.60;;;10.20;99.90;;;;;;6312857;22;20339;-80
2022/11/04 05:13:32;;;;;;;5.72;0.75;;;10.10;99.90;;;;;;6312791;22;20188;-80
2022/11/04 05:16:09;;;;;;;5.38;0.80;;;10.10;99.90;;;;;;6312884;22;20011;-80
2022/11/04 05:18:35;;;;;;;9.60;0.98;;;10.10;99.90;;;;;;6312743;22;20018;-80
2022/11/04 05:21:10;;;;;;;13.40;0.90;;;10.10;99.90;;;;;;6312714;22;20015;-80
2022/11/04 05:23:36;;;;;;;2.08;0.50;;;10.00;99.90;;;;;;6312683;22;20010;-80
2022/11/04 05:26:02;;;;;;;5.10;0.68;;;10.10;99.90;;;;;;6340639;22;20063;-79
2022/11/04 05:28:28;;;;;;;4.55;0.55;;;10.10;99.90;;;;;;6340196;22;20015;-79
2022/11/04 05:30:54;;;;;;;6.32;0.70;;;10.10;99.90;;;;;;6312640;22;20022;-80
2022/11/04 05:33:19;;;;;;;4.70;0.82;;;10.00;99.90;;;;;;6312657;22;20017;-79
2022/11/04 05:35:45;;;;;;;6.95;0.75;;;10.10;99.90;;;;;;6312568;22;20342;-79
2022/11/04 05:38:11;;;;;;;4.60;0.82;;;10.00;99.90;;;;;;6312554;22;20446;-79
2022/11/04 05:40:37;;;;;;;5.43;0.60;;;10.00;99.90;;;;;;6312543;22;20068;-79
2022/11/04 05:43:02;;;;;;;3.60;0.68;;;10.00;99.90;;;;;;6312666;22;20022;-80
2022/11/04 05:45:29;;;;;;;9.00;0.90;;;10.00;99.90;;;;;;6340399;22;20326;-79
2022/11/04 05:47:58;;;;;;;9.43;0.93;;;10.00;99.90;;;;;;6312358;22;20014;-79
2022/11/04 05:50:24;;;;;;;6.90;0.93;;;10.00;99.90;;;;;;6340404;22;20123;-79
2022/11/04 05:52:50;;;;;;;5.53;0.60;;;10.00;99.90;;;;;;6339915;22;20331;-79
2022/11/04 05:55:15;;;;;;;5.90;0.80;;;10.00;99.90;;;;;;6312565;22;20496;-79
2022/11/04 05:57:41;;;;;;;3.33;0.70;;;10.00;99.90;;;;;;6312481;22;20019;-79
2022/11/04 06:00:09;;;;;;;5.65;1.17;;;10.10;99.90;;;;;;6312420;22;20375;-79
2022/11/04 06:02:34;;;;;;;7.15;1.65;;;10.10;99.90;;;;;;6312084;22;20071;-80
2022/11/04 06:05:00;;;;;;;6.20;0.70;;;10.00;99.90;;;;;;6312413;22;20019;-80
2022/11/04 06:07:25;;;;;;;9.60;0.80;;;10.10;99.90;;;;;;6312205;22;20019;-80
2022/11/04 06:09:51;;;;;;;6.07;0.70;;;10.00;99.90;;;;;;6312178;22;20090;-80
2022/11/04 06:12:20;;;;;;;3.13;0.50;;;10.00;99.90;;;;;;6312353;22;20435;-80
2022/11/04 06:14:45;;;;;;;7.40;0.85;;;10.00;99.90;;;;;;6312217;22;20098;-80
2022/11/04 06:17:16;;;;;;;4.40;0.50;;;9.90;99.90;;;;;;6312269;22;20067;-80
2022/11/04 06:19:42;;;;;;;4.28;0.70;;;9.90;99.90;;;;;;6312209;22;20078;-80
2022/11/04 06:22:12;;;;;;;4.50;0.60;;;10.00;99.90;;;;;;6340112;22;20077;-80
2022/11/04 06:24:39;;;;;;;3.42;0.45;;;9.90;99.90;;;;;;6312263;22;20042;-80
2022/11/04 06:27:04;;;;;;;2.25;0.40;;;10.00;99.90;;;;;;6312216;22;20017;-80
2022/11/04 06:29:31;;;;;;;3.22;0.60;;;9.90;99.90;;;;;;6311916;22;20015;-80
2022/11/04 06:31:56;;;;;;;7.47;0.60;;;9.90;99.90;;;;;;6312018;22;20012;-80
2022/11/04 06:34:22;;;;;;;6.70;0.57;;;9.90;99.90;;;;;;6312053;22;20061;-80
2022/11/04 06:36:48;;;;;;;8.43;0.82;;;10.00;99.90;;;;;;6312054;22;20015;-80
2022/11/04 06:39:14;;;;;;;5.55;0.70;;;10.00;99.90;;;;;;6311831;22;20014;-80
2022/11/04 06:41:40;;;;;;;5.03;0.73;;;10.00;99.90;;;;;;6311427;22;20041;-80
2022/11/04 06:44:09;;;;;;;7.65;1.40;;;10.00;99.90;;;;;;6338740;22;20050;-80
2022/11/04 06:46:40;;;;;;;4.10;1.20;;;10.00;99.90;;;;;;6311797;22;20011;-80
2022/11/04 06:49:10;;;;;;;6.85;0.90;;;10.00;99.90;;;;;;6338554;22;20015;-81
2022/11/04 06:51:36;;;;;;;12.20;1.23;;;10.00;99.90;;;;;;6339773;22;20015;-80
2022/11/04 06:54:01;;;;;;;8.85;1.00;;;10.00;99.90;;;;;;6311692;22;20083;-80
2022/11/04 06:56:27;;;;;;;11.55;1.05;;;9.90;99.90;;;;;;6311808;22;20042;-80
2022/11/04 06:58:54;;;;;;;9.13;1.50;;;9.90;99.90;;;;;;6339464;22;20034;-80
2022/11/04 07:01:22;;;;;;;5.07;0.80;;;9.90;99.90;;;;;;6339710;22;20046;-80
2022/11/04 07:03:49;;;;;;;6.40;1.25;;;9.90;99.90;;;;;;6311675;22;20026;-81
2022/11/04 07:06:15;;;;;;;7.25;1.33;;;9.90;99.90;;;;;;6339699;22;20018;-80
2022/11/04 07:08:41;;;;;;;8.68;1.27;;;9.80;99.90;;;;;;6339008;22;20086;-80
2022/11/04 07:11:07;;;;;;;6.43;0.80;;;9.80;99.90;;;;;;6311551;22;20494;-80
2022/11/04 07:13:32;;;;;;;9.25;1.52;;;9.70;99.90;;;;;;6311021;22;20378;-80
2022/11/04 07:15:58;;;;;;;8.13;1.10;;;9.80;99.90;;;;;;6311635;22;20148;-80
2022/11/04 07:18:24;;;;;;;7.28;1.10;;;9.70;99.90;;;;;;6311376;22;20115;-80
2022/11/04 07:20:50;;;;;;;7.18;1.10;;;9.60;99.90;;;;;;6311638;22;20015;-81
2022/11/04 07:23:16;;;;;;;5.22;1.23;;;9.60;99.90;;;;;;6311446;22;20038;-81
2022/11/04 07:25:42;;;;;;;2.85;0.75;;;9.60;99.90;;;;;;6311438;22;20011;-80
2022/11/04 07:28:08;;;;;;;6.68;1.10;;;9.50;99.90;;;;;;6311338;22;20060;-81
2022/11/04 07:30:33;;;;;;;6.32;1.00;;;9.40;99.90;;;;;;6311399;22;20071;-79
2022/11/04 07:32:59;;;;;;;1.98;0.57;;;9.40;99.90;;;;;;6311475;22;20431;-79
2022/11/04 07:35:25;;;;;;;6.88;0.77;;;9.40;99.90;;;;;;6311428;22;20050;-80
2022/11/04 07:37:50;;;;;;;7.57;0.70;;;9.30;99.90;;;;;;6310208;22;20015;-80
2022/11/04 07:40:16;;;;;;;5.38;0.93;;;9.40;99.90;;;;;;6311161;22;20014;-79
2022/11/04 07:42:41;;;;;;;6.28;1.23;;;9.40;99.90;;;;;;6311190;22;20014;-79
2022/11/04 07:45:07;;;;;;;5.60;0.93;;;9.40;99.90;;;;;;6311207;22;20019;-79
2022/11/04 07:47:33;;;;;;;6.38;1.15;;;9.40;99.90;;;;;;6311114;22;20083;-79
2022/11/04 07:49:59;;;;;;;6.68;0.70;;;9.40;99.90;;;;;;6311160;22;20015;-79
2022/11/04 07:52:25;;;;;;;6.50;1.48;;;9.50;99.90;;;;;;6311206;22;20011;-79
2022/11/04 07:54:50;;;;;;;6.28;1.00;;;9.60;99.90;;;;;;6310999;22;20018;-79
2022/11/04 07:57:16;;;;;;;5.43;0.80;;;9.60;99.90;;;;;;6338759;22;20046;-79
2022/11/04 07:59:42;;;;;;;8.77;1.05;;;9.70;99.90;;;;;;6311034;22;20026;-80
2022/11/04 08:02:09;;;;;;;7.18;0.88;;;9.70;99.90;;;;;;6339222;22;20087;-80
2022/11/04 08:04:35;;;;;;;3.97;0.77;;;9.80;99.90;;;;;;6338679;22;20377;-80
2022/11/04 08:07:01;;;;;;;6.05;0.85;;;9.80;99.90;;;;;;6338970;22;20482;-80
2022/11/04 08:09:27;;;;;;;4.72;1.38;;;9.80;99.90;;;;;;6338178;22;20094;-80
2022/11/04 08:11:52;;;;;;;3.42;0.70;;;9.90;99.90;;;;;;6311067;22;20019;-79
2022/11/04 08:14:18;;;;;;;5.72;1.20;;;9.90;99.90;;;;;;6338925;22;20308;-80
2022/11/04 08:16:43;;;;;;;3.88;1.00;;;10.00;99.90;;;;;;6311094;22;20027;-80
2022/11/04 08:19:10;;;;;;;5.07;1.08;;;10.10;99.90;;;;;;6310963;22;20072;-80
2022/11/04 08:21:35;;;;;;;2.78;0.80;;;10.20;99.90;;;;;;6311076;22;20084;-80
2022/11/04 08:24:02;;;;;;;7.38;1.55;;;10.20;99.90;;;;;;6338828;22;20343;-79
2022/11/04 08:26:28;;;;;;;4.20;0.98;;;10.20;99.90;;;;;;6340264;22;20335;-80
2022/11/04 08:28:54;;;;;;;5.30;0.82;;;10.20;99.90;;;;;;6312821;22;20019;-79
2022/11/04 08:31:23;;;;;;;7.25;0.73;;;10.10;99.90;;;;;;6312903;22;20018;-80
2022/11/04 08:33:50;;;;;;;7.38;0.90;;;10.10;99.90;;;;;;6340739;22;20014;-80
2022/11/04 08:36:25;;;;;;;7.25;0.77;;;10.10;99.90;;;;;;6312741;22;20457;-81
2022/11/04 08:38:51;;;;;;;4.43;1.20;;;10.20;99.90;;;;;;6340295;22;20015;-80
2022/11/04 08:41:20;;;;;;;3.80;0.90;;;10.20;99.90;;;;;;6313126;22;20010;-80
2022/11/04 08:43:46;;;;;;;4.57;0.73;;;10.20;99.90;;;;;;6340673;22;20014;-80
2022/11/04 08:46:12;;;;;;;3.90;0.85;;;10.30;99.90;;;;;;6312656;22;20033;-80
2022/11/04 08:48:40;;;;;;;8.10;1.00;;;10.40;99.90;;;;;;6312666;22;20050;-80
2022/11/04 08:51:12;;;;;;;4.20;1.13;;;10.50;99.90;;;;;;6312609;22;20010;-80
2022/11/04 08:53:37;;;;;;;6.28;0.88;;;10.50;99.90;;;;;;6312869;22;20071;-80
2022/11/04 08:56:11;;;;;;;4.85;0.90;;;10.40;99.90;;;;;;6312528;22;20101;-80
2022/11/04 08:58:37;;;;;;;3.58;0.98;;;10.40;99.90;;;;;;6312769;22;20346;-80
2022/11/04 09:01:05;;;;;;;4.03;1.23;;;10.40;99.90;;;;;;6340020;22;20473;-80
2022/11/04 09:03:33;;;;;;;8.15;1.48;;;10.40;99.90;;;;;;6340332;22;20023;-80
2022/11/04 09:05:59;;;;;;;8.35;1.02;;;10.30;99.90;;;;;;6339981;22;20324;-80
2022/11/04 09:08:25;;;;;;;6.80;1.10;;;10.30;99.90;;;;;;6340133;22;20446;-80
2022/11/04 09:10:51;;;;;;;4.30;1.13;;;10.30;99.90;;;;;;6340442;22;20023;-80
2022/11/04 09:13:17;;;;;;;7.60;1.35;;;10.30;99.90;;;;;;6340483;22;20061;-80
2022/11/04 09:15:43;;;;;;;6.93;1.45;;;10.40;99.90;;;;;;6312342;22;20443;-80
2022/11/04 09:18:09;;;;;;;7.35;1.27;;;10.40;99.90;;;;;;6312262;22;20071;-80
2022/11/04 09:20:38;;;;;;;4.97;0.88;;;10.40;99.90;;;;;;6312432;22;20018;-80
2022/11/04 09:23:04;;;;;;;6.07;1.38;;;10.50;99.90;;;;;;6340109;22;20018;-80
2022/11/04 09:25:31;;;;;;;5.35;1.10;;;10.50;99.90;;;;;;6312343;22;20024;-79
2022/11/04 09:27:57;;;;;;;4.95;1.30;;;10.60;99.90;;;;;;6339773;22;20046;-80
2022/11/04 09:30:23;;;;;;;8.52;1.17;;;10.70;99.90;;;;;;6312406;22;20019;-80
2022/11/04 09:32:49;;;;;;;7.35;1.35;;;10.70;99.90;;;;;;6312574;22;20063;-80
2022/11/04 09:35:16;;;;;;;5.30;1.17;;;10.80;99.90;;;;;;6340208;22;20021;-80
2022/11/04 09:37:45;;;;;;;4.28;1.20;;;10.90;99.90;;;;;;6311702;22;20017;-80
2022/11/04 09:40:16;;;;;;;5.15;1.10;;;11.00;99.90;;;;;;6312178;22;20046;-80
2022/11/04 09:42:48;;;;;;;5.45;1.27;;;10.90;99.90;;;;;;6312199;22;20068;-80
2022/11/04 09:45:22;;;;;;;6.90;1.45;;;11.10;99.90;;;;;;6340116;22;20014;-80
2022/11/04 09:47:50;;;;;;;5.65;1.58;;;11.20;99.90;;;;;;6312408;22;20018;-80
2022/11/04 09:50:24;;;;;;;8.68;2.08;;;11.30;99.90;;;;;;6339753;22;20019;-80
2022/11/04 09:52:55;;;;;;;6.43;1.35;;;11.40;99.90;;;;;;6340016;22;20011;-80
2022/11/04 09:55:40;;;;;;;4.22;1.00;;;11.60;99.90;;;;;;6312127;22;20015;-80
2022/11/04 09:58:11;;;;;;;10.13;1.30;;;11.70;99.90;;;;;;6339510;22;20072;-81
2022/11/04 10:00:39;;;;;;;6.40;1.20;;;11.90;99.90;;;;;;6312168;22;20015;-80
2022/11/04 10:03:07;;;;;;;5.03;1.20;;;12.10;99.90;;;;;;6339940;22;20022;-80
2022/11/04 10:05:49;;;;;;;4.03;1.20;;;12.10;99.90;;;;;;6339654;22;20621;-80
2022/11/04 10:08:37;;;;;;;10.80;1.25;;;12.30;99.90;;;;;;6339342;22;20085;-80
2022/11/04 10:11:30;;;;;;;7.25;1.15;;;12.30;99.90;;;;;;6339907;22;20015;-80
2022/11/04 10:14:30;;;;;;;7.20;1.92;;;12.30;99.90;;;;;;6311938;22;20033;-80
2022/11/04 10:17:22;;;;;;;8.32;1.30;;;12.50;99.90;;;;;;6339849;22;20053;-79
2022/11/04 10:20:25;;;;;;;6.50;1.42;;;12.70;99.90;;;;;;6339459;22;20343;-79
2022/11/04 10:23:19;;;;;;;6.88;1.45;;;12.80;99.90;;;;;;6311632;22;20103;-79
2022/11/04 10:26:09;;;;;;;10.13;1.40;;;12.80;99.90;;;;;;6311455;22;20454;-80
2022/11/04 10:28:43;;;;;;;9.82;1.17;;;12.70;99.90;;;;;;6311241;22;20098;-78
2022/11/04 10:31:17;;;;;;;6.78;1.20;;;12.60;99.90;;;;;;6337814;22;20098;-79
2022/11/04 10:33:49;;;;;;;13.55;1.50;;;12.50;99.90;;;;;;6310217;22;20376;-79
2022/11/04 10:36:16;;;;;;;6.75;1.38;;;12.50;99.90;;;;;;6311494;22;20484;-78
2022/11/04 10:38:45;;;;;;;7.80;1.45;;;12.30;99.90;;;;;;6311648;22;20495;-79
2022/11/04 10:41:22;;;;;;;7.60;1.30;;;12.30;99.90;;;;;;6311788;22;20438;-78
2022/11/04 10:43:50;;;;;;;6.68;1.20;;;12.30;99.90;;;;;;6311390;22;20019;-78
2022/11/04 10:46:25;;;;;;;6.93;1.20;;;12.10;99.90;;;;;;6311588;22;20470;-78
2022/11/04 10:48:57;;;;;;;9.00;1.77;;;12.00;99.90;;;;;;6311420;22;20019;-78
2022/11/04 10:51:23;;;;;;;9.48;1.70;;;12.00;99.90;;;;;;6310500;22;20438;-78
2022/11/04 10:53:57;;;;;;;6.57;1.30;;;11.90;99.90;;;;;;6311440;22;20023;-78
2022/11/04 10:56:36;;;;;;;5.50;1.60;;;11.90;99.90;;;;;;6311513;22;20019;-79
2022/11/04 10:59:27;;;;;;;6.78;1.52;;;11.90;99.90;;;;;;6311565;22;20093;-78
2022/11/04 11:01:56;;;;;;;8.48;1.05;;;11.90;99.90;;;;;;6324626;22;20046;-78
2022/11/04 11:04:34;;;;;;;8.38;1.45;;;11.90;99.90;;;;;;6339480;22;20068;-78
2022/11/04 11:07:08;;;;;;;7.00;1.08;;;11.80;99.90;;;;;;6339418;22;20091;-78
2022/11/04 11:09:36;;;;;;;7.82;1.27;;;11.70;99.90;;;;;;6339183;22;20054;-78
2022/11/04 11:12:29;;;;;;;8.80;1.17;;;11.60;99.90;;;;;;6339054;22;20514;-78
2022/11/04 11:14:56;;;;;;;5.93;1.25;;;11.70;99.90;;;;;;6339353;22;20019;-78
2022/11/04 11:17:36;;;;;;;7.32;1.30;;;11.50;99.90;;;;;;6339428;22;20010;-78
2022/11/04 11:20:07;;;;;;;9.27;1.48;;;11.50;99.90;;;;;;6339312;22;20010;-79
2022/11/04 11:22:43;;;;;;;7.82;1.20;;;11.40;99.90;;;;;;6339310;22;20023;-78
2022/11/04 11:25:25;;;;;;;4.60;1.13;;;11.30;99.90;;;;;;6339264;22;20010;-78
2022/11/04 11:28:01;;;;;;;8.35;1.63;;;11.30;99.90;;;;;;6339056;22;20014;-78
2022/11/04 11:30:44;;;;;;;6.72;1.50;;;11.30;99.90;;;;;;6339602;22;20072;-78
2022/11/04 11:33:17;;;;;;;9.63;1.63;;;11.30;99.90;;;;;;6311336;22;20015;-79
2022/11/04 11:36:13;;;;;;;3.97;0.90;;;11.30;99.90;;;;;;6310992;22;20069;-79
2022/11/04 11:39:00;;;;;;;4.43;0.90;;;11.30;99.90;;;;;;6311123;22;20015;-79
2022/11/04 11:41:30;;;;;;;5.95;1.38;;;11.30;99.90;;;;;;6311225;22;20015;-78
2022/11/04 11:43:59;;;;;;;7.43;1.27;;;11.40;99.90;;;;;;6311298;22;20383;-78
2022/11/04 11:46:28;;;;;;;5.95;0.93;;;11.30;99.90;;;;;;6311077;22;20019;-78
2022/11/04 11:49:00;;;;;;;9.25;1.30;;;11.40;99.90;;;;;;6338752;22;20030;-78
2022/11/04 11:51:37;;;;;;;9.52;1.08;;;11.40;99.90;;;;;;6311054;22;20019;-78
2022/11/04 11:54:07;;;;;;;5.05;1.13;;;11.50;99.90;;;;;;6311160;22;20036;-78
2022/11/04 11:56:42;;;;;;;5.38;1.10;;;11.70;99.90;;;;;;6338753;22;20022;-78
2022/11/04 11:59:31;;;;;;;6.75;1.23;;;11.60;99.90;;;;;;6338820;22;20010;-79
2022/11/04 12:02:03;;;;;;;5.97;1.30;;;11.70;99.90;;;;;;6313175;22;20099;-79
2022/11/04 12:04:29;;;;;;;7.60;1.30;;;11.80;99.90;;;;;;6341166;22;20033;-78
2022/11/04 12:07:15;;;;;;;7.35;1.52;;;11.90;99.90;;;;;;6340900;22;20064;-79
2022/11/04 12:09:59;;;;;;;10.73;1.95;;;11.90;99.90;;;;;;6340566;22;20019;-79
2022/11/04 12:12:48;;;;;;;10.95;1.50;;;12.00;99.90;;;;;;6312884;22;20018;-78
2022/11/04 12:15:20;;;;;;;4.72;1.48;;;12.10;99.90;;;;;;6312279;22;20159;-78
2022/11/04 12:18:00;;;;;;;8.98;1.13;;;12.20;99.90;;;;;;6313034;22;20384;-79
2022/11/04 12:20:49;;;;;;;10.48;1.70;;;12.30;99.90;;;;;;6340930;22;20056;-79
2022/11/04 12:23:40;;;;;;;7.50;1.83;;;12.40;99.90;;;;;;6312935;22;20346;-79
2022/11/04 12:26:05;;;;;;;5.65;1.30;;;12.50;99.90;;;;;;6312152;22;20015;-79
2022/11/04 12:28:53;;;;;;;8.63;1.30;;;12.60;99.90;;;;;;6312742;22;20091;-79
2022/11/04 12:31:40;;;;;;;3.08;0.90;;;12.60;99.90;;;;;;6312889;22;20410;-79
2022/11/04 12:34:18;;;;;;;8.05;1.10;;;12.60;99.90;;;;;;6340774;22;20011;-79
2022/11/04 12:37:04;;;;;;;10.15;1.70;;;12.70;99.90;;;;;;6312763;22;20014;-79
2022/11/04 12:39:54;;;;;;;10.90;2.00;;;12.80;99.90;;;;;;6312859;22;20026;-79
2022/11/04 12:42:29;;;;;;;12.30;2.28;;;12.90;99.90;;;;;;6340584;22;20017;-78
2022/11/04 12:45:03;;;;;;;15.75;2.38;;;12.80;99.90;;;;;;6340486;22;20389;-81
2022/11/04 12:48:03;;;;;;;11.10;1.98;;;12.80;99.90;;;;;;6340917;22;20015;-77
2022/11/04 12:50:38;;;;;;;10.90;2.00;;;12.80;99.90;;;;;;6301545;22;20048;-77
2022/11/04 12:53:22;;;;;;;11.40;1.80;;;12.90;99.90;;;;;;6312960;22;20076;-79
2022/11/04 12:56:03;;;;;;;17.08;2.60;;;12.80;99.90;;;;;;6312926;22;20057;-78
2022/11/04 12:59:20;;;;;;;11.20;1.80;;;12.70;99.90;;;;;;6312942;22;20019;-78
2022/11/04 13:02:01;;;;;;;10.80;1.85;;;12.70;99.90;;;;;;6312838;22;20085;-78
2022/11/04 13:04:42;;;;;;;12.70;1.77;;;12.70;99.90;;;;;;6340720;22;20011;-78
2022/11/04 13:07:14;;;;;;;7.70;1.40;;;12.70;99.90;;;;;;6340751;22;20011;-78
2022/11/04 13:10:06;;;;;;;8.23;1.77;;;12.60;99.90;;;;;;6312615;22;20421;-78
2022/11/04 13:12:42;;;;;;;11.32;2.10;;;12.50;99.90;;;;;;6322813;22;20015;-78
2022/11/04 13:15:14;;;;;;;14.43;1.77;;;12.60;99.90;;;;;;6340751;22;20081;-78
2022/11/04 13:17:42;;;;;;;16.83;2.33;;;12.60;99.90;;;;;;6312610;22;20018;-78
2022/11/04 13:20:13;;;;;;;16.77;2.45;;;12.70;99.90;;;;;;6312658;22;20019;-78
2022/11/04 13:22:42;;;;;;;8.02;1.48;;;12.80;99.90;;;;;;6312566;22;20022;-78
2022/11/04 13:25:32;;;;;;;14.20;1.75;;;12.80;99.90;;;;;;6340202;22;20339;-78
2022/11/04 13:27:59;;;;;;;11.85;1.98;;;12.90;99.90;;;;;;6312561;22;20018;-78
2022/11/04 13:30:48;;;;;;;13.48;1.40;;;12.90;99.90;;;;;;6312348;22;20026;-78
2022/11/04 13:33:24;;;;;;;11.18;2.40;;;13.00;99.90;;;;;;6340112;22;20023;-78
2022/11/04 13:36:19;;;;;;;10.48;1.20;;;12.90;99.90;;;;;;6312469;22;20015;-78
2022/11/04 13:38:51;;;;;;;6.13;1.42;;;13.00;99.90;;;;;;6312533;22;20439;-78